sensor_id;sensor_type;location;lat;lon;timestamp;P1;durP1;ratioP1;P2;durP2;ratioP2
52674;SDS011;38569;52.722;6.440;2023-02-13T00:00:35;39.03;;;21.10;;
52674;SDS011;38569;52.722;6.440;2023-02-13T00:03:02;32.83;;;20.65;;
52674;SDS011;38569;52.722;6.440;2023-02-13T00:05:28;38.10;;;21.95;;
52674;SDS011;38569;52.722;6.440;2023-02-13T00:07:54;36.05;;;20.98;;
52674;SDS011;38569;52.722;6.440;2023-02-13T00:10:20;41.15;;;22.45;;
52674;SDS011;38569;52.722;6.440;2023-02-13T00:12:46;34.15;;;20.98;;
52674;SDS011;38569;52.722;6.440;2023-02-13T00:15:11;36.25;;;21.42;;
52674;SDS011;38569;52.722;6.440;2023-02-13T00:17:37;32.20;;;21.27;;
52674;SDS011;38569;52.722;6.440;2023-02-13T00:20:03;39.42;;;22.80;;
52674;SDS011;38569;52.722;6.440;2023-02-13T00:22:29;32.55;;;20.63;;
52674;SDS011;38569;52.722;6.440;2023-02-13T00:24:59;34.65;;;20.80;;
52674;SDS011;38569;52.722;6.440;2023-02-13T00:27:24;35.38;;;22.58;;
52674;SDS011;38569;52.722;6.440;2023-02-13T00:29:50;38.83;;;21.70;;
52674;SDS011;38569;52.722;6.440;2023-02-13T00:32:16;31.75;;;20.10;;
52674;SDS011;38569;52.722;6.440;2023-02-13T00:34:41;34.75;;;21.55;;
52674;SDS011;38569;52.722;6.440;2023-02-13T00:37:08;36.72;;;22.40;;
52674;SDS011;38569;52.722;6.440;2023-02-13T00:39:34;39.67;;;22.77;;
52674;SDS011;38569;52.722;6.440;2023-02-13T00:41:59;38.00;;;22.17;;
52674;SDS011;38569;52.722;6.440;2023-02-13T00:44:25;36.58;;;21.95;;
52674;SDS011;38569;52.722;6.440;2023-02-13T00:46:51;34.03;;;21.88;;
52674;SDS011;38569;52.722;6.440;2023-02-13T00:49:17;35.60;;;22.13;;
52674;SDS011;38569;52.722;6.440;2023-02-13T00:51:42;35.03;;;22.17;;
52674;SDS011;38569;52.722;6.440;2023-02-13T00:54:08;35.42;;;21.98;;
52674;SDS011;38569;52.722;6.440;2023-02-13T00:56:34;33.78;;;20.52;;
52674;SDS011;38569;52.722;6.440;2023-02-13T00:58:59;35.10;;;23.35;;
52674;SDS011;38569;52.722;6.440;2023-02-13T01:01:25;34.47;;;21.23;;
52674;SDS011;38569;52.722;6.440;2023-02-13T01:03:51;33.08;;;21.25;;
52674;SDS011;38569;52.722;6.440;2023-02-13T01:06:17;34.25;;;21.67;;
52674;SDS011;38569;52.722;6.440;2023-02-13T01:08:42;37.97;;;21.00;;
52674;SDS011;38569;52.722;6.440;2023-02-13T01:11:11;32.35;;;21.52;;
52674;SDS011;38569;52.722;6.440;2023-02-13T01:13:37;38.22;;;23.02;;
52674;SDS011;38569;52.722;6.440;2023-02-13T01:16:03;38.38;;;23.90;;
52674;SDS011;38569;52.722;6.440;2023-02-13T01:18:29;33.40;;;20.92;;
52674;SDS011;38569;52.722;6.440;2023-02-13T01:20:59;33.53;;;20.95;;
52674;SDS011;38569;52.722;6.440;2023-02-13T01:23:33;38.97;;;22.52;;
52674;SDS011;38569;52.722;6.440;2023-02-13T01:26:02;36.60;;;22.48;;
52674;SDS011;38569;52.722;6.440;2023-02-13T01:28:29;33.20;;;21.35;;
52674;SDS011;38569;52.722;6.440;2023-02-13T01:30:55;35.70;;;22.42;;
52674;SDS011;38569;52.722;6.440;2023-02-13T01:33:22;35.65;;;21.92;;
52674;SDS011;38569;52.722;6.440;2023-02-13T01:35:49;35.92;;;23.02;;
52674;SDS011;38569;52.722;6.440;2023-02-13T01:38:16;35.40;;;21.60;;
52674;SDS011;38569;52.722;6.440;2023-02-13T01:40:46;38.42;;;21.70;;
52674;SDS011;38569;52.722;6.440;2023-02-13T01:43:14;32.58;;;20.58;;
52674;SDS011;38569;52.722;6.440;2023-02-13T01:45:40;32.45;;;20.00;;
52674;SDS011;38569;52.722;6.440;2023-02-13T01:48:17;36.42;;;21.73;;
52674;SDS011;38569;52.722;6.440;2023-02-13T01:50:56;33.60;;;19.88;;
52674;SDS011;38569;52.722;6.440;2023-02-13T01:56:29;36.47;;;21.63;;
52674;SDS011;38569;52.722;6.440;2023-02-13T01:58:58;36.63;;;19.90;;
52674;SDS011;38569;52.722;6.440;2023-02-13T02:01:27;32.65;;;20.10;;
52674;SDS011;38569;52.722;6.440;2023-02-13T02:03:56;37.92;;;21.48;;
52674;SDS011;38569;52.722;6.440;2023-02-13T02:06:32;35.15;;;20.85;;
52674;SDS011;38569;52.722;6.440;2023-02-13T02:09:01;31.88;;;20.00;;
52674;SDS011;38569;52.722;6.440;2023-02-13T02:12:05;33.20;;;21.50;;
52674;SDS011;38569;52.722;6.440;2023-02-13T02:14:27;33.38;;;21.65;;
52674;SDS011;38569;52.722;6.440;2023-02-13T02:16:52;33.88;;;20.90;;
52674;SDS011;38569;52.722;6.440;2023-02-13T02:22:00;30.90;;;20.15;;
52674;SDS011;38569;52.722;6.440;2023-02-13T02:41:10;34.75;;;20.80;;
52674;SDS011;38569;52.722;6.440;2023-02-13T02:50:22;31.05;;;18.88;;
52674;SDS011;38569;52.722;6.440;2023-02-13T02:56:53;34.10;;;21.08;;
52674;SDS011;38569;52.722;6.440;2023-02-13T02:59:05;33.67;;;19.88;;
52674;SDS011;38569;52.722;6.440;2023-02-13T03:01:54;38.53;;;20.30;;
52674;SDS011;38569;52.722;6.440;2023-02-13T03:04:41;32.30;;;19.73;;
52674;SDS011;38569;52.722;6.440;2023-02-13T03:07:30;40.33;;;20.63;;
52674;SDS011;38569;52.722;6.440;2023-02-13T03:09:57;34.28;;;22.20;;
52674;SDS011;38569;52.722;6.440;2023-02-13T03:12:51;36.25;;;21.55;;
52674;SDS011;38569;52.722;6.440;2023-02-13T03:15:40;29.63;;;19.15;;
52674;SDS011;38569;52.722;6.440;2023-02-13T03:18:32;37.10;;;20.70;;
52674;SDS011;38569;52.722;6.440;2023-02-13T03:24:32;34.97;;;19.58;;
52674;SDS011;38569;52.722;6.440;2023-02-13T03:35:36;37.72;;;20.98;;
52674;SDS011;38569;52.722;6.440;2023-02-13T03:38:41;30.02;;;19.13;;
52674;SDS011;38569;52.722;6.440;2023-02-13T03:41:17;29.48;;;18.45;;
52674;SDS011;38569;52.722;6.440;2023-02-13T03:46:19;35.92;;;20.98;;
52674;SDS011;38569;52.722;6.440;2023-02-13T03:48:45;35.38;;;21.25;;
52674;SDS011;38569;52.722;6.440;2023-02-13T03:51:32;34.80;;;20.75;;
52674;SDS011;38569;52.722;6.440;2023-02-13T03:57:10;32.90;;;21.63;;
52674;SDS011;38569;52.722;6.440;2023-02-13T03:59:59;32.72;;;18.95;;
52674;SDS011;38569;52.722;6.440;2023-02-13T04:02:28;36.67;;;19.65;;
52674;SDS011;38569;52.722;6.440;2023-02-13T04:05:17;29.92;;;18.38;;
52674;SDS011;38569;52.722;6.440;2023-02-13T04:07:48;31.73;;;19.52;;
52674;SDS011;38569;52.722;6.440;2023-02-13T04:10:14;36.53;;;20.73;;
52674;SDS011;38569;52.722;6.440;2023-02-13T04:15:42;33.55;;;19.92;;
52674;SDS011;38569;52.722;6.440;2023-02-13T04:18:18;33.28;;;21.90;;
52674;SDS011;38569;52.722;6.440;2023-02-13T04:20:47;30.88;;;19.27;;
52674;SDS011;38569;52.722;6.440;2023-02-13T04:23:13;30.75;;;20.77;;
52674;SDS011;38569;52.722;6.440;2023-02-13T04:25:40;31.02;;;18.75;;
52674;SDS011;38569;52.722;6.440;2023-02-13T04:28:08;35.45;;;20.58;;
52674;SDS011;38569;52.722;6.440;2023-02-13T04:30:34;37.13;;;20.30;;
52674;SDS011;38569;52.722;6.440;2023-02-13T04:32:59;32.40;;;18.35;;
52674;SDS011;38569;52.722;6.440;2023-02-13T04:35:25;31.45;;;18.77;;
52674;SDS011;38569;52.722;6.440;2023-02-13T04:37:51;30.17;;;18.10;;
52674;SDS011;38569;52.722;6.440;2023-02-13T04:40:17;31.92;;;18.67;;
52674;SDS011;38569;52.722;6.440;2023-02-13T04:42:43;31.80;;;18.80;;
52674;SDS011;38569;52.722;6.440;2023-02-13T04:45:10;27.13;;;17.70;;
52674;SDS011;38569;52.722;6.440;2023-02-13T04:47:36;29.60;;;18.17;;
52674;SDS011;38569;52.722;6.440;2023-02-13T04:50:02;33.70;;;20.98;;
52674;SDS011;38569;52.722;6.440;2023-02-13T04:52:28;34.60;;;18.95;;
52674;SDS011;38569;52.722;6.440;2023-02-13T04:54:54;36.80;;;19.73;;
52674;SDS011;38569;52.722;6.440;2023-02-13T04:57:19;34.78;;;19.25;;
52674;SDS011;38569;52.722;6.440;2023-02-13T04:59:45;35.22;;;19.20;;
52674;SDS011;38569;52.722;6.440;2023-02-13T05:02:11;33.55;;;18.60;;
52674;SDS011;38569;52.722;6.440;2023-02-13T05:04:36;33.65;;;19.10;;
52674;SDS011;38569;52.722;6.440;2023-02-13T05:07:02;34.00;;;18.90;;
52674;SDS011;38569;52.722;6.440;2023-02-13T05:09:28;33.63;;;18.40;;
52674;SDS011;38569;52.722;6.440;2023-02-13T05:11:53;37.22;;;19.85;;
52674;SDS011;38569;52.722;6.440;2023-02-13T05:14:19;33.50;;;20.48;;
52674;SDS011;38569;52.722;6.440;2023-02-13T05:16:46;32.75;;;19.83;;
52674;SDS011;38569;52.722;6.440;2023-02-13T05:19:14;34.25;;;19.23;;
52674;SDS011;38569;52.722;6.440;2023-02-13T05:21:40;40.65;;;21.15;;
52674;SDS011;38569;52.722;6.440;2023-02-13T05:24:24;36.63;;;21.05;;
52674;SDS011;38569;52.722;6.440;2023-02-13T05:26:50;33.35;;;20.42;;
52674;SDS011;38569;52.722;6.440;2023-02-13T05:29:16;33.13;;;20.00;;
52674;SDS011;38569;52.722;6.440;2023-02-13T05:31:48;35.83;;;20.73;;
52674;SDS011;38569;52.722;6.440;2023-02-13T05:34:22;35.95;;;20.75;;
52674;SDS011;38569;52.722;6.440;2023-02-13T05:36:49;33.53;;;20.65;;
52674;SDS011;38569;52.722;6.440;2023-02-13T05:39:15;31.38;;;19.17;;
52674;SDS011;38569;52.722;6.440;2023-02-13T05:41:42;35.70;;;20.50;;
52674;SDS011;38569;52.722;6.440;2023-02-13T05:44:08;31.77;;;19.95;;
52674;SDS011;38569;52.722;6.440;2023-02-13T05:46:35;31.00;;;19.48;;
52674;SDS011;38569;52.722;6.440;2023-02-13T05:49:02;33.97;;;20.65;;
52674;SDS011;38569;52.722;6.440;2023-02-13T05:51:29;33.70;;;20.60;;
52674;SDS011;38569;52.722;6.440;2023-02-13T05:53:55;38.78;;;22.45;;
52674;SDS011;38569;52.722;6.440;2023-02-13T05:56:20;34.17;;;20.63;;
52674;SDS011;38569;52.722;6.440;2023-02-13T05:58:46;34.47;;;20.27;;
52674;SDS011;38569;52.722;6.440;2023-02-13T06:01:15;36.22;;;19.98;;
52674;SDS011;38569;52.722;6.440;2023-02-13T06:03:41;36.90;;;20.70;;
52674;SDS011;38569;52.722;6.440;2023-02-13T06:06:06;34.67;;;20.27;;
52674;SDS011;38569;52.722;6.440;2023-02-13T06:08:32;34.15;;;19.20;;
52674;SDS011;38569;52.722;6.440;2023-02-13T06:10:58;36.90;;;22.00;;
52674;SDS011;38569;52.722;6.440;2023-02-13T06:13:24;37.38;;;20.85;;
52674;SDS011;38569;52.722;6.440;2023-02-13T06:15:50;30.73;;;19.25;;
52674;SDS011;38569;52.722;6.440;2023-02-13T06:18:16;33.15;;;19.80;;
52674;SDS011;38569;52.722;6.440;2023-02-13T06:20:41;38.38;;;21.50;;
52674;SDS011;38569;52.722;6.440;2023-02-13T06:23:07;31.65;;;20.27;;
52674;SDS011;38569;52.722;6.440;2023-02-13T06:25:33;36.78;;;21.70;;
52674;SDS011;38569;52.722;6.440;2023-02-13T06:28:00;39.05;;;22.67;;
52674;SDS011;38569;52.722;6.440;2023-02-13T06:30:26;33.53;;;20.83;;
52674;SDS011;38569;52.722;6.440;2023-02-13T06:32:53;30.50;;;19.75;;
52674;SDS011;38569;52.722;6.440;2023-02-13T06:35:18;36.58;;;20.67;;
52674;SDS011;38569;52.722;6.440;2023-02-13T06:37:44;36.13;;;23.23;;
52674;SDS011;38569;52.722;6.440;2023-02-13T06:40:11;38.67;;;21.63;;
52674;SDS011;38569;52.722;6.440;2023-02-13T06:42:38;35.28;;;20.80;;
52674;SDS011;38569;52.722;6.440;2023-02-13T06:45:04;36.63;;;21.33;;
52674;SDS011;38569;52.722;6.440;2023-02-13T06:47:30;37.00;;;21.48;;
52674;SDS011;38569;52.722;6.440;2023-02-13T06:49:56;36.90;;;20.73;;
52674;SDS011;38569;52.722;6.440;2023-02-13T06:52:21;38.92;;;20.63;;
52674;SDS011;38569;52.722;6.440;2023-02-13T06:54:47;38.90;;;22.00;;
52674;SDS011;38569;52.722;6.440;2023-02-13T06:57:13;40.72;;;21.88;;
52674;SDS011;38569;52.722;6.440;2023-02-13T06:59:40;35.05;;;21.17;;
52674;SDS011;38569;52.722;6.440;2023-02-13T07:02:07;38.70;;;21.42;;
52674;SDS011;38569;52.722;6.440;2023-02-13T07:04:34;44.67;;;21.95;;
52674;SDS011;38569;52.722;6.440;2023-02-13T07:07:00;35.72;;;20.70;;
52674;SDS011;38569;52.722;6.440;2023-02-13T07:09:25;37.35;;;21.70;;
52674;SDS011;38569;52.722;6.440;2023-02-13T07:11:51;38.13;;;19.70;;
52674;SDS011;38569;52.722;6.440;2023-02-13T07:14:19;33.88;;;20.77;;
52674;SDS011;38569;52.722;6.440;2023-02-13T07:16:45;31.77;;;19.30;;
52674;SDS011;38569;52.722;6.440;2023-02-13T07:19:11;36.65;;;20.63;;
52674;SDS011;38569;52.722;6.440;2023-02-13T07:21:37;36.30;;;20.88;;
52674;SDS011;38569;52.722;6.440;2023-02-13T07:24:03;34.72;;;20.98;;
52674;SDS011;38569;52.722;6.440;2023-02-13T07:26:29;32.28;;;20.23;;
52674;SDS011;38569;52.722;6.440;2023-02-13T07:28:55;36.22;;;18.63;;
52674;SDS011;38569;52.722;6.440;2023-02-13T07:31:20;34.92;;;19.83;;
52674;SDS011;38569;52.722;6.440;2023-02-13T07:33:49;38.22;;;20.48;;
52674;SDS011;38569;52.722;6.440;2023-02-13T07:36:15;33.58;;;20.33;;
52674;SDS011;38569;52.722;6.440;2023-02-13T07:38:41;39.78;;;21.38;;
52674;SDS011;38569;52.722;6.440;2023-02-13T07:41:06;36.70;;;21.05;;
52674;SDS011;38569;52.722;6.440;2023-02-13T07:43:33;33.30;;;20.27;;
52674;SDS011;38569;52.722;6.440;2023-02-13T07:45:59;36.45;;;21.65;;
52674;SDS011;38569;52.722;6.440;2023-02-13T07:48:26;32.28;;;18.73;;
52674;SDS011;38569;52.722;6.440;2023-02-13T07:50:52;31.33;;;19.23;;
52674;SDS011;38569;52.722;6.440;2023-02-13T07:53:19;34.47;;;18.88;;
52674;SDS011;38569;52.722;6.440;2023-02-13T07:55:45;29.38;;;17.45;;
52674;SDS011;38569;52.722;6.440;2023-02-13T07:58:10;27.48;;;17.45;;
52674;SDS011;38569;52.722;6.440;2023-02-13T08:00:36;30.27;;;17.73;;
52674;SDS011;38569;52.722;6.440;2023-02-13T08:03:02;38.17;;;22.55;;
52674;SDS011;38569;52.722;6.440;2023-02-13T08:05:28;32.53;;;19.15;;
52674;SDS011;38569;52.722;6.440;2023-02-13T08:07:56;31.95;;;18.85;;
52674;SDS011;38569;52.722;6.440;2023-02-13T08:10:21;30.45;;;18.67;;
52674;SDS011;38569;52.722;6.440;2023-02-13T08:13:06;29.63;;;18.60;;
52674;SDS011;38569;52.722;6.440;2023-02-13T08:15:33;30.95;;;17.95;;
52674;SDS011;38569;52.722;6.440;2023-02-13T08:17:59;30.75;;;17.75;;
52674;SDS011;38569;52.722;6.440;2023-02-13T08:20:25;29.73;;;17.55;;
52674;SDS011;38569;52.722;6.440;2023-02-13T08:22:51;31.85;;;16.98;;
52674;SDS011;38569;52.722;6.440;2023-02-13T08:25:18;31.63;;;18.75;;
52674;SDS011;38569;52.722;6.440;2023-02-13T08:27:44;30.95;;;18.48;;
52674;SDS011;38569;52.722;6.440;2023-02-13T08:30:11;29.02;;;17.70;;
52674;SDS011;38569;52.722;6.440;2023-02-13T08:32:37;27.13;;;17.02;;
52674;SDS011;38569;52.722;6.440;2023-02-13T08:35:03;31.52;;;16.80;;
52674;SDS011;38569;52.722;6.440;2023-02-13T08:37:29;29.73;;;17.85;;
52674;SDS011;38569;52.722;6.440;2023-02-13T08:39:54;29.63;;;17.17;;
52674;SDS011;38569;52.722;6.440;2023-02-13T08:42:20;29.67;;;18.52;;
52674;SDS011;38569;52.722;6.440;2023-02-13T08:44:46;26.92;;;16.55;;
52674;SDS011;38569;52.722;6.440;2023-02-13T08:47:12;35.22;;;18.55;;
52674;SDS011;38569;52.722;6.440;2023-02-13T08:49:37;32.65;;;17.20;;
52674;SDS011;38569;52.722;6.440;2023-02-13T08:52:03;32.78;;;17.75;;
52674;SDS011;38569;52.722;6.440;2023-02-13T08:54:29;32.55;;;17.90;;
52674;SDS011;38569;52.722;6.440;2023-02-13T08:56:55;31.15;;;17.70;;
52674;SDS011;38569;52.722;6.440;2023-02-13T08:59:21;33.17;;;18.85;;
52674;SDS011;38569;52.722;6.440;2023-02-13T09:01:47;30.65;;;17.17;;
52674;SDS011;38569;52.722;6.440;2023-02-13T09:04:13;29.30;;;16.98;;
52674;SDS011;38569;52.722;6.440;2023-02-13T09:06:42;29.65;;;16.92;;
52674;SDS011;38569;52.722;6.440;2023-02-13T09:09:08;28.85;;;17.33;;
52674;SDS011;38569;52.722;6.440;2023-02-13T09:11:34;33.75;;;18.17;;
52674;SDS011;38569;52.722;6.440;2023-02-13T09:14:00;28.50;;;17.52;;
52674;SDS011;38569;52.722;6.440;2023-02-13T09:16:26;29.58;;;17.98;;
52674;SDS011;38569;52.722;6.440;2023-02-13T09:18:52;28.83;;;17.45;;
52674;SDS011;38569;52.722;6.440;2023-02-13T09:21:18;30.77;;;17.63;;
52674;SDS011;38569;52.722;6.440;2023-02-13T09:23:46;30.63;;;18.08;;
52674;SDS011;38569;52.722;6.440;2023-02-13T09:26:13;31.02;;;17.23;;
52674;SDS011;38569;52.722;6.440;2023-02-13T09:28:40;32.20;;;18.30;;
52674;SDS011;38569;52.722;6.440;2023-02-13T09:31:06;29.50;;;17.15;;
52674;SDS011;38569;52.722;6.440;2023-02-13T09:33:44;31.58;;;18.13;;
52674;SDS011;38569;52.722;6.440;2023-02-13T09:36:12;32.85;;;18.08;;
52674;SDS011;38569;52.722;6.440;2023-02-13T09:38:40;32.33;;;19.42;;
52674;SDS011;38569;52.722;6.440;2023-02-13T09:41:18;31.25;;;19.30;;
52674;SDS011;38569;52.722;6.440;2023-02-13T09:46:16;28.35;;;19.38;;
52674;SDS011;38569;52.722;6.440;2023-02-13T09:48:47;29.70;;;17.83;;
52674;SDS011;38569;52.722;6.440;2023-02-13T09:51:16;31.58;;;19.85;;
52674;SDS011;38569;52.722;6.440;2023-02-13T09:53:46;28.80;;;17.75;;
52674;SDS011;38569;52.722;6.440;2023-02-13T09:56:32;32.78;;;19.20;;
52674;SDS011;38569;52.722;6.440;2023-02-13T10:01:55;34.97;;;21.90;;
52674;SDS011;38569;52.722;6.440;2023-02-13T10:07:00;34.75;;;22.02;;
52674;SDS011;38569;52.722;6.440;2023-02-13T10:09:39;34.08;;;20.90;;
52674;SDS011;38569;52.722;6.440;2023-02-13T10:18:13;45.38;;;21.67;;
52674;SDS011;38569;52.722;6.440;2023-02-13T10:20:35;31.10;;;19.95;;
52674;SDS011;38569;52.722;6.440;2023-02-13T10:23:21;30.65;;;20.00;;
52674;SDS011;38569;52.722;6.440;2023-02-13T10:25:59;34.42;;;21.50;;
52674;SDS011;38569;52.722;6.440;2023-02-13T10:31:15;28.65;;;20.90;;
52674;SDS011;38569;52.722;6.440;2023-02-13T10:33:46;28.55;;;19.83;;
52674;SDS011;38569;52.722;6.440;2023-02-13T10:36:35;32.85;;;20.45;;
52674;SDS011;38569;52.722;6.440;2023-02-13T10:41:51;36.85;;;23.33;;
52674;SDS011;38569;52.722;6.440;2023-02-13T11:00:54;32.70;;;22.23;;
52674;SDS011;38569;52.722;6.440;2023-02-13T11:03:47;36.53;;;24.98;;
52674;SDS011;38569;52.722;6.440;2023-02-13T11:06:26;35.92;;;23.45;;
52674;SDS011;38569;52.722;6.440;2023-02-13T11:08:54;32.45;;;23.23;;
52674;SDS011;38569;52.722;6.440;2023-02-13T11:14:14;32.30;;;22.55;;
52674;SDS011;38569;52.722;6.440;2023-02-13T11:16:49;31.60;;;22.38;;
52674;SDS011;38569;52.722;6.440;2023-02-13T11:19:19;33.50;;;24.23;;
52674;SDS011;38569;52.722;6.440;2023-02-13T11:22:02;30.10;;;21.65;;
52674;SDS011;38569;52.722;6.440;2023-02-13T11:24:32;32.15;;;23.75;;
52674;SDS011;38569;52.722;6.440;2023-02-13T11:26:59;31.50;;;24.00;;
52674;SDS011;38569;52.722;6.440;2023-02-13T11:29:34;30.88;;;21.88;;
52674;SDS011;38569;52.722;6.440;2023-02-13T11:34:39;32.50;;;23.27;;
52674;SDS011;38569;52.722;6.440;2023-02-13T11:39:34;37.17;;;24.10;;
52674;SDS011;38569;52.722;6.440;2023-02-13T11:42:00;30.83;;;23.35;;
52674;SDS011;38569;52.722;6.440;2023-02-13T11:44:26;31.77;;;23.48;;
52674;SDS011;38569;52.722;6.440;2023-02-13T11:46:55;35.65;;;24.63;;
52674;SDS011;38569;52.722;6.440;2023-02-13T11:49:23;31.92;;;24.77;;
52674;SDS011;38569;52.722;6.440;2023-02-13T11:51:53;32.97;;;23.42;;
52674;SDS011;38569;52.722;6.440;2023-02-13T11:59:53;28.50;;;22.55;;
52674;SDS011;38569;52.722;6.440;2023-02-13T12:02:30;30.67;;;23.55;;
52674;SDS011;38569;52.722;6.440;2023-02-13T12:05:21;28.45;;;22.58;;
52674;SDS011;38569;52.722;6.440;2023-02-13T12:07:48;29.98;;;22.25;;
52674;SDS011;38569;52.722;6.440;2023-02-13T12:12:57;31.73;;;23.25;;
52674;SDS011;38569;52.722;6.440;2023-02-13T12:15:36;28.05;;;22.85;;
52674;SDS011;38569;52.722;6.440;2023-02-13T12:18:45;29.10;;;23.45;;
52674;SDS011;38569;52.722;6.440;2023-02-13T12:26:22;31.00;;;24.08;;
52674;SDS011;38569;52.722;6.440;2023-02-13T12:35:46;34.75;;;26.35;;
52674;SDS011;38569;52.722;6.440;2023-02-13T12:47:18;29.38;;;23.67;;
52674;SDS011;38569;52.722;6.440;2023-02-13T13:03:20;29.95;;;23.98;;
52674;SDS011;38569;52.722;6.440;2023-02-13T13:11:33;33.45;;;24.73;;
52674;SDS011;38569;52.722;6.440;2023-02-13T13:14:42;33.67;;;26.48;;
52674;SDS011;38569;52.722;6.440;2023-02-13T13:25:54;28.20;;;23.98;;
52674;SDS011;38569;52.722;6.440;2023-02-13T13:28:29;31.02;;;24.83;;
52674;SDS011;38569;52.722;6.440;2023-02-13T13:30:59;31.80;;;27.10;;
52674;SDS011;38569;52.722;6.440;2023-02-13T13:33:27;30.60;;;25.73;;
52674;SDS011;38569;52.722;6.440;2023-02-13T13:38:30;31.00;;;26.45;;
52674;SDS011;38569;52.722;6.440;2023-02-13T13:44:02;30.73;;;26.80;;
52674;SDS011;38569;52.722;6.440;2023-02-13T13:52:35;31.48;;;25.52;;
52674;SDS011;38569;52.722;6.440;2023-02-13T13:55:03;31.20;;;26.48;;
52674;SDS011;38569;52.722;6.440;2023-02-13T14:05:19;30.38;;;25.75;;
52674;SDS011;38569;52.722;6.440;2023-02-13T14:07:57;29.83;;;26.20;;
52674;SDS011;38569;52.722;6.440;2023-02-13T14:20:41;30.48;;;25.75;;
52674;SDS011;38569;52.722;6.440;2023-02-13T14:26:11;30.85;;;25.60;;
52674;SDS011;38569;52.722;6.440;2023-02-13T14:31:24;30.63;;;25.10;;
52674;SDS011;38569;52.722;6.440;2023-02-13T14:33:53;28.67;;;24.83;;
52674;SDS011;38569;52.722;6.440;2023-02-13T14:36:31;31.05;;;26.75;;
52674;SDS011;38569;52.722;6.440;2023-02-13T14:39:27;28.00;;;24.77;;
52674;SDS011;38569;52.722;6.440;2023-02-13T14:41:56;27.40;;;24.50;;
52674;SDS011;38569;52.722;6.440;2023-02-13T14:44:24;33.40;;;24.55;;
52674;SDS011;38569;52.722;6.440;2023-02-13T14:47:02;31.92;;;26.55;;
52674;SDS011;38569;52.722;6.440;2023-02-13T14:49:38;28.80;;;24.25;;
52674;SDS011;38569;52.722;6.440;2023-02-13T14:52:05;27.42;;;23.05;;
52674;SDS011;38569;52.722;6.440;2023-02-13T14:54:46;26.40;;;23.20;;
52674;SDS011;38569;52.722;6.440;2023-02-13T14:59:53;25.00;;;21.88;;
52674;SDS011;38569;52.722;6.440;2023-02-13T15:02:26;27.17;;;21.85;;
52674;SDS011;38569;52.722;6.440;2023-02-13T15:05:00;23.63;;;21.05;;
52674;SDS011;38569;52.722;6.440;2023-02-13T15:07:44;24.40;;;21.52;;
52674;SDS011;38569;52.722;6.440;2023-02-13T15:10:39;26.20;;;22.35;;
52674;SDS011;38569;52.722;6.440;2023-02-13T15:13:15;25.63;;;21.48;;
52674;SDS011;38569;52.722;6.440;2023-02-13T15:15:50;25.02;;;20.25;;
52674;SDS011;38569;52.722;6.440;2023-02-13T15:18:26;25.55;;;22.50;;
52674;SDS011;38569;52.722;6.440;2023-02-13T15:21:00;23.63;;;20.73;;
52674;SDS011;38569;52.722;6.440;2023-02-13T15:24:10;23.67;;;20.75;;
52674;SDS011;38569;52.722;6.440;2023-02-13T15:27:06;25.73;;;22.10;;
52674;SDS011;38569;52.722;6.440;2023-02-13T15:29:54;25.98;;;21.13;;
52674;SDS011;38569;52.722;6.440;2023-02-13T15:32:27;24.60;;;20.60;;
52674;SDS011;38569;52.722;6.440;2023-02-13T15:35:00;26.05;;;21.42;;
52674;SDS011;38569;52.722;6.440;2023-02-13T15:37:34;26.13;;;22.50;;
52674;SDS011;38569;52.722;6.440;2023-02-13T15:40:18;24.48;;;20.52;;
52674;SDS011;38569;52.722;6.440;2023-02-13T15:42:50;24.15;;;20.67;;
52674;SDS011;38569;52.722;6.440;2023-02-13T15:45:28;27.15;;;20.75;;
52674;SDS011;38569;52.722;6.440;2023-02-13T15:48:12;26.83;;;21.77;;
52674;SDS011;38569;52.722;6.440;2023-02-13T15:53:09;26.77;;;22.10;;
52674;SDS011;38569;52.722;6.440;2023-02-13T15:55:40;29.90;;;23.42;;
52674;SDS011;38569;52.722;6.440;2023-02-13T15:58:08;27.85;;;21.77;;
52674;SDS011;38569;52.722;6.440;2023-02-13T16:00:39;28.13;;;22.65;;
52674;SDS011;38569;52.722;6.440;2023-02-13T16:05:40;30.25;;;22.05;;
52674;SDS011;38569;52.722;6.440;2023-02-13T16:11:19;28.08;;;22.40;;
52674;SDS011;38569;52.722;6.440;2023-02-13T16:14:22;28.95;;;22.48;;
52674;SDS011;38569;52.722;6.440;2023-02-13T16:16:57;30.45;;;23.85;;
52674;SDS011;38569;52.722;6.440;2023-02-13T16:25:05;32.20;;;24.55;;
52674;SDS011;38569;52.722;6.440;2023-02-13T16:27:48;31.30;;;25.33;;
52674;SDS011;38569;52.722;6.440;2023-02-13T16:35:42;33.13;;;26.13;;
52674;SDS011;38569;52.722;6.440;2023-02-13T16:38:25;33.08;;;24.00;;
52674;SDS011;38569;52.722;6.440;2023-02-13T16:40:58;31.05;;;24.08;;
52674;SDS011;38569;52.722;6.440;2023-02-13T16:48:46;35.08;;;26.10;;
52674;SDS011;38569;52.722;6.440;2023-02-13T16:51:23;34.80;;;25.02;;
52674;SDS011;38569;52.722;6.440;2023-02-13T16:54:02;35.38;;;26.55;;
52674;SDS011;38569;52.722;6.440;2023-02-13T16:56:41;35.50;;;26.70;;
52674;SDS011;38569;52.722;6.440;2023-02-13T16:59:13;36.67;;;27.88;;
52674;SDS011;38569;52.722;6.440;2023-02-13T17:01:43;37.95;;;28.25;;
52674;SDS011;38569;52.722;6.440;2023-02-13T17:04:14;41.47;;;28.60;;
52674;SDS011;38569;52.722;6.440;2023-02-13T17:06:47;37.80;;;27.73;;
52674;SDS011;38569;52.722;6.440;2023-02-13T17:09:19;36.90;;;28.23;;
52674;SDS011;38569;52.722;6.440;2023-02-13T17:11:46;40.50;;;28.63;;
52674;SDS011;38569;52.722;6.440;2023-02-13T17:14:15;39.60;;;27.63;;
52674;SDS011;38569;52.722;6.440;2023-02-13T17:16:42;39.95;;;28.02;;
52674;SDS011;38569;52.722;6.440;2023-02-13T17:19:08;40.13;;;31.17;;
52674;SDS011;38569;52.722;6.440;2023-02-13T17:21:33;43.22;;;31.70;;
52674;SDS011;38569;52.722;6.440;2023-02-13T17:24:00;39.35;;;30.33;;
52674;SDS011;38569;52.722;6.440;2023-02-13T17:26:26;38.13;;;27.73;;
52674;SDS011;38569;52.722;6.440;2023-02-13T17:28:52;43.78;;;30.17;;
52674;SDS011;38569;52.722;6.440;2023-02-13T17:31:18;34.55;;;27.60;;
52674;SDS011;38569;52.722;6.440;2023-02-13T17:33:44;44.38;;;32.67;;
52674;SDS011;38569;52.722;6.440;2023-02-13T17:36:13;40.70;;;30.88;;
52674;SDS011;38569;52.722;6.440;2023-02-13T17:38:39;48.08;;;33.55;;
52674;SDS011;38569;52.722;6.440;2023-02-13T17:41:05;63.60;;;42.92;;
52674;SDS011;38569;52.722;6.440;2023-02-13T17:43:37;56.45;;;37.40;;
52674;SDS011;38569;52.722;6.440;2023-02-13T17:46:03;58.55;;;38.80;;
52674;SDS011;38569;52.722;6.440;2023-02-13T17:48:32;52.83;;;36.63;;
52674;SDS011;38569;52.722;6.440;2023-02-13T17:50:58;47.75;;;34.80;;
52674;SDS011;38569;52.722;6.440;2023-02-13T17:53:28;49.60;;;33.20;;
52674;SDS011;38569;52.722;6.440;2023-02-13T17:55:54;52.95;;;36.38;;
52674;SDS011;38569;52.722;6.440;2023-02-13T17:58:21;53.90;;;36.10;;
52674;SDS011;38569;52.722;6.440;2023-02-13T18:00:46;48.70;;;34.10;;
52674;SDS011;38569;52.722;6.440;2023-02-13T18:03:13;45.60;;;33.65;;
52674;SDS011;38569;52.722;6.440;2023-02-13T18:05:39;52.30;;;38.00;;
52674;SDS011;38569;52.722;6.440;2023-02-13T18:08:05;43.95;;;32.45;;
52674;SDS011;38569;52.722;6.440;2023-02-13T18:10:33;50.97;;;34.38;;
52674;SDS011;38569;52.722;6.440;2023-02-13T18:13:00;51.42;;;34.20;;
52674;SDS011;38569;52.722;6.440;2023-02-13T18:15:30;49.90;;;34.63;;